Sextonville, WI (53584)

1:48 PM CDT on April 28, 2015 (GMT -0500)
Ash Creek | | Change Station
CLOSE
Current Station
Personal Weather Station
Location: Richland Center, WI
Elevation: 732 ft
Nearby Weather Stations

Elev 732 ft 43.33 °N, 90.39 °W | Updated 13 minutes ago

Clear
Clear
66.3 °F
Feels Like 66.3 °F
N
4.0
Wind Variable Wind from NW
Gusts 7.0 mph

Today
High -- | Low -- °F
--% Chance of Precip.
Yesterday
High -- | Low -- °F
Precip. -- in
5:59 AM 7:59 PM
Waxing Gibbous, 75% visible
Pressure 30.09 in
Visibility 10.0 miles
Clouds Clear
Dew Point 41 °F
Humidity 40%
Rainfall 0.00 in
Snow Depth Not available.
UV 10 out of 12
Pollen 9.90 out of 12
Air Quality Not available.
Flu Activity Local Activity
METAR KLNR 281756Z AUTO 15004KT 10SM CLR 17/02 A3010 RMK AO2 SLP189 T01720022 10172 20011

More Conditions Fewer Conditions

Pressure 30.09 in
Visibility 10.0 miles
Clouds Clear
Dew Point 41 °F
Humidity 40%
Rainfall 0.00 in
Snow Depth Not available.
UV 10 out of 12
Pollen 9.90 out of 12
Air Quality Not available.
Flu Activity Local Activity
METAR KLNR 281756Z AUTO 15004KT 10SM CLR 17/02 A3010 RMK AO2 SLP189 T01720022 10172 20011

More Conditions Fewer Conditions

10-Day Weather Forecast

Almanac

Astronomy

Apr. 28, 2015 Rise Set
Actual Time
Civil Twilight
Nautical Twilight
Astronomical Twilight
Moon
Length of Visible Light
Length of Day
Tomorrow will be .
, % of the Moon is Illuminated

Today's Extremes

State Highs State Lows

Community

WunderPhotos

Upload Photos

1,817,725 photos uploaded!

WunderBlogs® & News

Nearby

Air Quality

  Air Quality AQ Index Pollutant
Not available.

Snow Depth

Station Depth Elevation

Earthquake Activity

City Distance Mag. Time & Date
Minimum magnitude displayed is 2.5.

Coastal Water Temperatures

Place Temperature

Stations

Nearby Weather Stations

Station Location Temp. Windchill Dew Point Humidity Wind Precip. Elev Updated Type